Time;durP1;ratioP1;P1;durP2;ratioP2;P2;SDS_P1;SDS_P2;PMS_P1;PMS_P2;Temp;Humidity;BMP_temperature;BMP_pressure;BME280_temperature;BME280_humidity;BME280_pressure;Samples;Min_cycle;Max_cycle;Signal;HPM_P1;HPM_P2
2021/10/08 00:01:05;;;;;;;44.70;18.80;;;9.10;46.80;;;;;;4975486;28;20695;-62
2021/10/08 00:03:31;;;;;;;41.57;18.70;;;9.10;43.40;;;;;;4975710;28;20646;-60
2021/10/08 00:05:58;;;;;;;39.70;18.63;;;9.10;37.60;;;;;;4975310;28;20209;-60
2021/10/08 00:08:24;;;;;;;41.80;17.90;;;9.10;36.90;;;;;;4975421;28;20747;-59
2021/10/08 00:10:51;;;;;;;35.57;17.17;;;9.10;40.60;;;;;;4975309;28;20224;-62
2021/10/08 00:13:19;;;;;;;37.77;16.33;;;9.10;32.50;;;;;;4975482;28;20263;-61
2021/10/08 00:15:46;;;;;;;45.77;19.60;;;9.10;28.80;;;;;;4975127;28;20212;-58
2021/10/08 00:18:12;;;;;;;40.00;17.73;;;9.10;27.60;;;;;;4975537;28;20208;-60
2021/10/08 00:20:39;;;;;;;40.03;17.37;;;9.10;32.60;;;;;;4975298;28;20283;-56
2021/10/08 00:23:06;;;;;;;41.10;16.47;;;9.10;37.00;;;;;;4975159;28;20212;-59
2021/10/08 00:25:33;;;;;;;40.20;17.37;;;9.10;36.20;;;;;;4974985;28;20266;-58
2021/10/08 00:28:00;;;;;;;43.07;17.20;;;9.10;38.70;;;;;;4975229;28;20212;-57
2021/10/08 00:30:28;;;;;;;48.80;17.93;;;9.00;43.70;;;;;;4974886;28;20236;-59
2021/10/08 00:32:54;;;;;;;45.73;19.00;;;9.00;51.80;;;;;;4975196;28;20273;-59
2021/10/08 00:35:21;;;;;;;37.77;16.80;;;9.00;62.50;;;;;;4974824;28;20418;-60
2021/10/08 00:37:50;;;;;;;42.63;17.60;;;9.10;66.60;;;;;;4974919;28;20212;-60
2021/10/08 00:40:17;;;;;;;37.07;16.60;;;9.00;75.60;;;;;;4974891;28;20228;-58
2021/10/08 00:42:46;;;;;;;37.33;15.93;;;9.10;76.30;;;;;;4974738;28;20239;-59
2021/10/08 00:45:13;;;;;;;34.20;15.30;;;9.10;71.00;;;;;;4974424;28;20287;-59
2021/10/08 00:47:41;;;;;;;34.87;15.00;;;9.10;58.30;;;;;;4974985;28;20215;-59
2021/10/08 00:50:10;;;;;;;34.43;15.87;;;9.00;65.40;;;;;;4974690;28;20232;-60
2021/10/08 00:52:37;;;;;;;32.20;14.43;;;9.00;61.00;;;;;;4974862;28;20208;-59
2021/10/08 00:55:04;;;;;;;43.20;15.50;;;9.00;58.20;;;;;;4974336;28;20209;-59
2021/10/08 00:57:31;;;;;;;38.43;16.57;;;9.00;57.90;;;;;;4974773;28;20216;-56
2021/10/08 00:59:58;;;;;;;42.57;17.07;;;8.80;64.20;;;;;;4974305;28;20277;-59
2021/10/08 01:02:25;;;;;;;50.63;18.30;;;8.70;87.30;;;;;;4974568;28;20215;-59
2021/10/08 01:04:56;;;;;;;42.77;17.03;;;8.60;90.40;;;;;;4973935;28;20795;-61
2021/10/08 01:07:23;;;;;;;40.77;17.07;;;8.60;93.10;;;;;;4974349;28;20249;-59
2021/10/08 01:09:50;;;;;;;42.80;18.37;;;8.60;83.30;;;;;;4974113;28;20297;-60
2021/10/08 01:12:16;;;;;;;48.67;17.00;;;8.60;71.50;;;;;;4974204;28;20890;-59
2021/10/08 01:14:43;;;;;;;40.03;16.67;;;8.50;60.70;;;;;;4974182;28;20280;-59
2021/10/08 01:17:14;;;;;;;38.70;16.60;;;8.50;64.20;;;;;;4974372;28;20711;-58
2021/10/08 01:19:41;;;;;;;38.80;15.67;;;8.50;58.80;;;;;;4974058;28;20364;-59
2021/10/08 01:22:09;;;;;;;35.97;15.67;;;8.40;57.40;;;;;;4974096;28;20266;-59
2021/10/08 01:24:36;;;;;;;33.73;14.33;;;8.40;52.70;;;;;;4973504;28;21125;-60
2021/10/08 01:27:03;;;;;;;33.30;13.97;;;8.40;43.00;;;;;;4974223;28;20242;-59
2021/10/08 01:29:30;;;;;;;29.10;14.23;;;8.40;36.30;;;;;;4973959;28;20319;-59
2021/10/08 01:31:57;;;;;;;31.13;14.03;;;8.40;22.90;;;;;;4973994;28;20584;-57
2021/10/08 01:34:23;;;;;;;26.30;13.73;;;8.40;13.00;;;;;;4973942;28;20285;-57
2021/10/08 01:36:50;;;;;;;29.93;14.07;;;8.30;1.00;;;;;;4973509;28;20204;-60
2021/10/08 01:39:18;;;;;;;41.83;15.33;;;8.30;1.00;;;;;;4973976;28;20285;-57
2021/10/08 01:41:45;;;;;;;32.97;14.37;;;8.10;1.00;;;;;;4973789;28;20630;-59
2021/10/08 01:44:12;;;;;;;33.90;15.43;;;8.00;14.20;;;;;;4973745;28;20687;-60
2021/10/08 01:46:38;;;;;;;28.77;13.77;;;8.10;18.30;;;;;;4973224;28;20613;-60
2021/10/08 01:49:05;;;;;;;31.47;13.80;;;8.00;20.90;;;;;;4973462;28;20241;-59
2021/10/08 01:51:32;;;;;;;25.20;13.20;;;8.00;8.90;;;;;;4973489;28;20583;-60
2021/10/08 01:53:58;;;;;;;28.90;13.77;;;8.00;3.00;;;;;;4973793;28;20207;-59
2021/10/08 01:56:28;;;;;;;30.30;13.57;;;8.00;2.00;;;;;;4973420;28;20270;-61
2021/10/08 01:58:55;;;;;;;33.80;14.10;;;8.00;2.60;;;;;;4973799;28;20234;-59
2021/10/08 02:01:22;;;;;;;35.63;14.97;;;8.00;2.20;;;;;;4973376;28;20215;-60
2021/10/08 02:03:48;;;;;;;33.50;13.60;;;7.90;17.70;;;;;;4973119;28;20227;-59
2021/10/08 02:06:15;;;;;;;29.57;13.87;;;7.90;25.00;;;;;;4973040;28;20654;-60
2021/10/08 02:08:42;;;;;;;28.53;12.43;;;8.00;20.70;;;;;;4973471;28;20228;-59
2021/10/08 02:11:09;;;;;;;25.97;13.03;;;8.00;25.40;;;;;;4973475;28;20215;-59
2021/10/08 02:13:37;;;;;;;25.07;12.93;;;8.00;30.90;;;;;;4972860;28;20635;-60
2021/10/08 02:16:04;;;;;;;26.70;12.63;;;8.10;23.80;;;;;;4972873;28;20625;-61
2021/10/08 02:18:30;;;;;;;29.10;12.70;;;8.10;21.40;;;;;;4972995;28;20741;-57
2021/10/08 02:20:57;;;;;;;26.80;12.90;;;8.00;26.00;;;;;;4973207;28;20675;-60
2021/10/08 02:23:24;;;;;;;27.73;12.70;;;8.00;35.50;;;;;;4973425;28;20213;-58
2021/10/08 02:25:50;;;;;;;28.43;12.90;;;8.10;33.30;;;;;;4973003;28;20208;-60
2021/10/08 02:28:17;;;;;;;28.60;13.43;;;8.10;32.20;;;;;;4973417;28;20628;-57
2021/10/08 02:30:45;;;;;;;25.57;13.20;;;8.00;46.10;;;;;;4973273;28;20226;-60
2021/10/08 02:33:12;;;;;;;28.97;13.80;;;8.00;60.90;;;;;;4972911;28;20734;-60
2021/10/08 02:35:39;;;;;;;26.70;13.10;;;8.00;67.70;;;;;;4973100;28;20211;-60
2021/10/08 02:38:06;;;;;;;24.50;12.03;;;8.10;58.10;;;;;;4973222;28;20781;-59
2021/10/08 02:40:33;;;;;;;23.93;11.77;;;8.10;65.90;;;;;;4973135;28;20234;-59
2021/10/08 02:43:00;;;;;;;25.70;12.60;;;8.10;65.70;;;;;;4973552;28;20198;-57
2021/10/08 02:45:26;;;;;;;21.47;12.00;;;8.10;68.50;;;;;;4972741;28;20277;-60
2021/10/08 02:47:54;;;;;;;25.70;12.57;;;8.10;67.20;;;;;;4972862;28;20265;-57
2021/10/08 02:50:22;;;;;;;23.53;12.30;;;8.10;64.10;;;;;;4973077;28;20280;-60
2021/10/08 02:52:49;;;;;;;21.90;11.40;;;8.10;66.20;;;;;;4973110;28;20644;-58
2021/10/08 02:55:16;;;;;;;24.07;12.37;;;8.10;74.00;;;;;;4972676;28;20671;-60
2021/10/08 02:57:42;;;;;;;28.83;12.00;;;8.10;75.00;;;;;;4972922;28;20217;-57
2021/10/08 03:00:10;;;;;;;24.47;12.43;;;8.20;74.90;;;;;;4972867;28;20230;-60
2021/10/08 03:02:38;;;;;;;23.03;11.57;;;8.10;67.30;;;;;;4972698;28;20218;-60
2021/10/08 03:05:07;;;;;;;24.47;11.73;;;8.10;71.90;;;;;;4972562;28;20233;-59
2021/10/08 03:07:34;;;;;;;22.13;12.10;;;8.10;69.70;;;;;;4973015;28;20207;-58
2021/10/08 03:10:01;;;;;;;29.80;14.73;;;8.00;70.60;;;;;;4972895;28;20227;-60
2021/10/08 03:12:28;;;;;;;31.17;14.73;;;8.00;75.00;;;;;;4972933;28;20334;-60
2021/10/08 03:14:54;;;;;;;27.23;13.30;;;7.90;77.40;;;;;;4972374;28;20202;-62
2021/10/08 03:17:21;;;;;;;28.03;13.70;;;7.90;78.30;;;;;;4972812;28;20214;-60
2021/10/08 03:19:48;;;;;;;24.20;11.93;;;7.80;88.40;;;;;;4972876;28;20287;-60
2021/10/08 03:22:16;;;;;;;27.33;13.27;;;7.80;92.20;;;;;;4972835;28;20214;-60
2021/10/08 03:24:43;;;;;;;25.70;12.67;;;7.80;91.70;;;;;;4974745;28;20235;-58
2021/10/08 03:27:10;;;;;;;24.63;12.73;;;7.90;87.90;;;;;;4976854;28;20208;-59
2021/10/08 03:29:36;;;;;;;22.17;11.63;;;7.90;74.80;;;;;;4976065;28;20231;-56
2021/10/08 03:32:04;;;;;;;17.37;10.80;;;7.90;50.40;;;;;;4976330;28;20209;-59
2021/10/08 03:34:30;;;;;;;19.73;11.63;;;8.00;28.50;;;;;;4976039;28;20272;-56
2021/10/08 03:36:59;;;;;;;19.67;10.70;;;8.00;25.00;;;;;;4975978;28;20312;-57
2021/10/08 03:39:28;;;;;;;21.83;10.83;;;7.90;24.90;;;;;;4975981;28;20241;-58
2021/10/08 03:41:55;;;;;;;20.27;11.67;;;7.90;15.20;;;;;;4976032;28;20316;-59
2021/10/08 03:44:22;;;;;;;21.33;10.13;;;7.90;14.30;;;;;;4976073;28;20237;-60
2021/10/08 03:46:51;;;;;;;16.77;9.80;;;7.90;1.00;;;;;;4975603;28;20214;-60
2021/10/08 03:49:19;;;;;;;17.83;10.30;;;7.80;1.00;;;;;;4975948;28;20321;-60
2021/10/08 03:51:48;;;;;;;17.83;9.70;;;7.80;1.00;;;;;;4975785;28;20208;-59
2021/10/08 03:54:17;;;;;;;16.53;9.97;;;7.70;1.00;;;;;;4976133;28;20272;-60
2021/10/08 03:56:46;;;;;;;23.03;10.87;;;7.70;1.00;;;;;;4975662;28;20301;-60
2021/10/08 03:59:13;;;;;;;19.63;11.00;;;7.60;1.00;;;;;;4976082;28;20237;-60
2021/10/08 04:01:40;;;;;;;17.47;11.03;;;7.60;1.00;;;;;;4975941;28;20271;-60
2021/10/08 04:04:08;;;;;;;22.00;11.03;;;7.60;1.00;;;;;;4975762;28;20210;-60
2021/10/08 04:06:36;;;;;;;21.53;12.07;;;7.50;1.00;;;;;;4975313;28;20264;-60
2021/10/08 04:09:04;;;;;;;22.87;12.07;;;7.50;1.00;;;;;;4975284;28;20241;-60
2021/10/08 04:11:32;;;;;;;17.87;10.83;;;7.40;1.00;;;;;;4975866;28;20644;-59
2021/10/08 04:14:00;;;;;;;21.07;10.97;;;7.40;1.00;;;;;;4975820;28;20650;-57
2021/10/08 04:16:27;;;;;;;18.47;10.73;;;7.40;1.00;;;;;;4972946;28;20207;-59
2021/10/08 04:18:53;;;;;;;19.33;10.50;;;7.30;1.00;;;;;;4975323;28;20609;-58
2021/10/08 04:21:20;;;;;;;17.03;10.50;;;7.30;1.00;;;;;;4975374;28;20221;-54
2021/10/08 04:23:47;;;;;;;18.07;10.40;;;7.20;1.00;;;;;;4975011;28;20208;-57
2021/10/08 04:26:14;;;;;;;17.37;10.37;;;7.20;1.00;;;;;;4968167;28;20273;-57
2021/10/08 04:28:40;;;;;;;17.77;10.43;;;7.20;1.00;;;;;;4992505;28;20258;-60
2021/10/08 04:31:08;;;;;;;20.30;10.47;;;7.20;1.00;;;;;;4994130;28;20255;-59
2021/10/08 04:33:35;;;;;;;18.43;10.70;;;7.20;1.00;;;;;;4994108;28;20664;-56
2021/10/08 04:36:02;;;;;;;16.30;10.50;;;7.20;1.00;;;;;;4993417;28;20212;-60
2021/10/08 04:38:30;;;;;;;15.37;9.47;;;7.10;1.00;;;;;;4993974;28;20204;-59
2021/10/08 04:40:57;;;;;;;15.40;10.27;;;7.10;1.00;;;;;;4994266;28;20312;-60
2021/10/08 04:43:24;;;;;;;16.47;10.27;;;7.10;1.00;;;;;;4993859;28;20755;-58
2021/10/08 04:45:50;;;;;;;16.03;10.43;;;7.10;1.00;;;;;;4993778;28;20227;-58
2021/10/08 04:48:18;;;;;;;18.03;10.93;;;7.10;1.00;;;;;;4994175;28;20235;-61
2021/10/08 04:50:45;;;;;;;18.47;10.60;;;7.00;1.00;;;;;;4992937;28;20232;-59
2021/10/08 04:53:14;;;;;;;15.60;10.00;;;7.00;1.00;;;;;;4994165;28;20204;-59
2021/10/08 04:55:41;;;;;;;20.37;10.83;;;7.00;1.00;;;;;;4993849;28;20295;-60
2021/10/08 04:58:08;;;;;;;22.00;11.17;;;6.90;1.00;;;;;;4993800;28;20216;-57
2021/10/08 05:00:35;;;;;;;17.43;10.00;;;6.80;1.00;;;;;;4993691;28;20279;-60
2021/10/08 05:03:07;;;;;;;20.23;11.73;;;6.70;1.00;;;;;;4993903;28;20211;-60
2021/10/08 05:05:35;;;;;;;16.90;10.60;;;6.70;1.00;;;;;;4993370;28;20231;-60
2021/10/08 05:08:01;;;;;;;18.33;11.00;;;6.70;1.00;;;;;;4993907;28;20211;-60
2021/10/08 05:10:28;;;;;;;17.63;11.57;;;6.70;1.00;;;;;;4993777;28;20278;-59
2021/10/08 05:12:55;;;;;;;19.07;11.67;;;6.70;1.00;;;;;;4993594;28;20215;-60
2021/10/08 05:15:22;;;;;;;19.67;11.60;;;6.70;1.00;;;;;;4993349;28;20927;-59
2021/10/08 05:17:48;;;;;;;21.27;10.70;;;6.70;1.00;;;;;;4993145;28;20734;-58
2021/10/08 05:20:15;;;;;;;19.53;9.93;;;6.80;1.00;;;;;;4993533;28;20231;-59
2021/10/08 05:22:43;;;;;;;15.67;9.90;;;6.80;1.00;;;;;;4993459;28;20212;-65
2021/10/08 05:25:09;;;;;;;16.97;10.60;;;6.80;1.00;;;;;;4984103;28;20585;-61
2021/10/08 05:27:36;;;;;;;17.17;10.50;;;6.80;1.00;;;;;;4974006;28;20644;-61
2021/10/08 05:30:04;;;;;;;17.07;10.47;;;6.80;1.00;;;;;;4973874;28;20283;-60
2021/10/08 05:32:30;;;;;;;18.80;10.50;;;6.80;1.00;;;;;;4973609;28;20311;-61
2021/10/08 05:34:57;;;;;;;18.20;11.33;;;6.80;1.00;;;;;;4986241;28;20612;-61
2021/10/08 05:37:23;;;;;;;19.40;11.33;;;6.80;1.00;;;;;;4993246;28;20254;-61
2021/10/08 05:39:51;;;;;;;20.13;11.47;;;6.80;1.00;;;;;;4983678;28;20229;-61
2021/10/08 05:42:18;;;;;;;18.27;11.07;;;6.80;1.00;;;;;;4973448;28;20360;-62
2021/10/08 05:44:45;;;;;;;20.17;11.67;;;6.80;1.00;;;;;;4972798;28;20736;-62
2021/10/08 05:47:11;;;;;;;20.93;12.03;;;6.80;1.00;;;;;;4973263;28;20216;-63
2021/10/08 05:49:39;;;;;;;21.90;11.93;;;6.90;1.00;;;;;;4973532;28;20275;-63
2021/10/08 05:52:06;;;;;;;22.90;12.13;;;7.00;1.00;;;;;;4973356;28;20208;-64
2021/10/08 05:54:32;;;;;;;24.63;11.47;;;7.00;1.00;;;;;;4973297;28;20209;-63
2021/10/08 05:57:00;;;;;;;21.63;12.33;;;7.00;1.00;;;;;;4973286;28;20210;-63
2021/10/08 05:59:27;;;;;;;24.30;12.97;;;7.10;1.00;;;;;;4973027;28;20261;-63
2021/10/08 06:01:54;;;;;;;24.43;13.13;;;7.10;1.00;;;;;;4973695;28;20270;-63
2021/10/08 06:04:20;;;;;;;25.73;13.30;;;7.20;1.00;;;;;;4973360;28;20212;-65
2021/10/08 06:06:47;;;;;;;23.93;12.97;;;7.20;1.00;;;;;;4972997;28;20279;-64
2021/10/08 06:09:14;;;;;;;25.87;14.07;;;7.20;1.00;;;;;;4973405;28;20267;-62
2021/10/08 06:11:40;;;;;;;23.40;12.90;;;7.30;5.50;;;;;;4973148;28;20213;-62
2021/10/08 06:14:08;;;;;;;29.83;14.57;;;7.30;14.90;;;;;;4972901;28;20209;-61
2021/10/08 06:16:35;;;;;;;24.77;13.70;;;7.30;26.30;;;;;;4973222;28;20263;-62
2021/10/08 06:19:02;;;;;;;25.53;13.77;;;7.30;35.90;;;;;;4973540;28;20232;-62
2021/10/08 06:21:28;;;;;;;25.47;12.77;;;7.40;47.80;;;;;;4990369;28;20207;-61
2021/10/08 06:23:55;;;;;;;26.80;14.00;;;7.50;55.40;;;;;;4992555;28;20207;-61
2021/10/08 06:26:22;;;;;;;28.10;13.70;;;7.50;70.80;;;;;;4991997;28;20235;-62
2021/10/08 06:28:49;;;;;;;25.10;13.60;;;7.60;80.40;;;;;;4992131;28;20228;-64
2021/10/08 06:31:17;;;;;;;21.90;13.10;;;7.70;84.20;;;;;;4992294;28;20239;-62
2021/10/08 06:33:43;;;;;;;24.27;12.50;;;7.70;93.10;;;;;;4992635;28;20239;-59
2021/10/08 06:36:10;;;;;;;23.37;12.40;;;7.80;96.00;;;;;;4991860;28;20618;-61
2021/10/08 06:38:36;;;;;;;22.60;12.87;;;7.90;99.90;;;;;;4992435;28;20208;-61
2021/10/08 06:41:03;;;;;;;23.27;13.23;;;7.90;99.90;;;;;;4991982;28;20276;-61
2021/10/08 06:43:30;;;;;;;20.80;12.87;;;8.00;99.90;;;;;;4986235;28;20213;-62
2021/10/08 06:45:56;;;;;;;21.03;11.97;;;8.10;99.90;;;;;;4970774;28;20222;-64
2021/10/08 06:48:24;;;;;;;22.20;11.77;;;8.20;99.90;;;;;;4986178;28;20214;-63
2021/10/08 06:50:51;;;;;;;21.80;12.30;;;8.30;99.90;;;;;;4992066;28;20212;-62
2021/10/08 06:53:18;;;;;;;29.30;15.13;;;8.30;99.90;;;;;;4991817;28;20298;-62
2021/10/08 06:55:46;;;;;;;31.60;14.23;;;8.30;99.90;;;;;;4990911;28;20205;-59
2021/10/08 06:58:13;;;;;;;25.27;13.87;;;8.30;99.90;;;;;;4992208;28;20205;-63
2021/10/08 07:00:40;;;;;;;25.10;13.87;;;8.30;99.90;;;;;;4995433;28;20225;-63
2021/10/08 07:03:06;;;;;;;19.13;12.17;;;8.40;99.90;;;;;;4995755;28;20215;-63
2021/10/08 07:05:34;;;;;;;25.07;13.13;;;8.50;99.90;;;;;;4994777;28;20707;-64
2021/10/08 07:08:01;;;;;;;20.03;12.13;;;8.50;99.90;;;;;;4995528;28;20253;-63
2021/10/08 07:10:28;;;;;;;18.77;11.80;;;8.60;99.90;;;;;;4995257;28;20581;-63
2021/10/08 07:12:54;;;;;;;19.33;10.93;;;8.70;99.90;;;;;;4995374;28;20208;-61
2021/10/08 07:15:21;;;;;;;18.57;11.20;;;8.80;99.90;;;;;;4994588;28;20667;-63
2021/10/08 07:17:51;;;;;;;18.30;11.13;;;8.80;99.90;;;;;;4995337;28;20592;-63
2021/10/08 07:20:19;;;;;;;18.80;11.60;;;8.80;99.90;;;;;;4995046;28;20289;-63
2021/10/08 07:22:47;;;;;;;17.27;11.50;;;8.90;99.90;;;;;;4995069;28;20739;-62
2021/10/08 07:25:14;;;;;;;22.80;12.17;;;9.00;99.90;;;;;;4994577;28;20262;-63
2021/10/08 07:27:42;;;;;;;20.07;11.97;;;9.00;99.90;;;;;;4995413;28;20207;-63
2021/10/08 07:30:10;;;;;;;23.90;12.90;;;9.10;99.90;;;;;;4995533;28;20227;-63
2021/10/08 07:32:38;;;;;;;22.10;13.30;;;9.10;99.90;;;;;;4995253;28;20207;-63
2021/10/08 07:35:06;;;;;;;18.90;12.50;;;9.20;99.90;;;;;;4994535;28;20215;-62
2021/10/08 07:37:33;;;;;;;21.97;13.43;;;9.30;99.90;;;;;;4994736;28;20215;-63
2021/10/08 07:40:01;;;;;;;24.13;13.57;;;9.40;99.90;;;;;;4994842;28;20769;-66
2021/10/08 07:42:27;;;;;;;20.83;12.27;;;9.50;99.90;;;;;;4994946;28;20222;-65
2021/10/08 07:44:54;;;;;;;19.10;12.23;;;9.50;99.90;;;;;;4994349;28;20207;-63
2021/10/08 07:47:22;;;;;;;17.33;10.87;;;9.60;99.90;;;;;;4994758;28;20227;-63
2021/10/08 07:49:48;;;;;;;15.77;10.30;;;9.70;99.90;;;;;;4995175;28;20654;-63
2021/10/08 07:52:15;;;;;;;16.13;11.00;;;9.80;99.90;;;;;;4994805;28;20210;-63
2021/10/08 07:54:42;;;;;;;15.70;10.23;;;9.90;99.90;;;;;;4994144;28;20204;-64
2021/10/08 07:57:10;;;;;;;13.87;9.93;;;9.90;99.90;;;;;;4995081;28;20580;-63
2021/10/08 07:59:37;;;;;;;12.67;9.43;;;10.00;99.90;;;;;;4994565;28;20235;-63
2021/10/08 08:02:04;;;;;;;13.80;9.70;;;10.10;99.90;;;;;;4994596;28;20203;-64
2021/10/08 08:04:31;;;;;;;14.17;8.83;;;10.20;99.90;;;;;;4993873;28;20258;-63
2021/10/08 08:06:58;;;;;;;14.93;9.73;;;10.30;99.90;;;;;;4994695;28;20235;-63
2021/10/08 08:09:24;;;;;;;14.43;9.43;;;10.40;27.10;;;;;;4993800;28;20231;-63
2021/10/08 08:11:51;;;;;;;12.37;8.70;;;10.50;1.00;;;;;;4993837;28;20215;-62
2021/10/08 08:14:19;;;;;;;11.77;7.87;;;10.60;99.90;;;;;;4994034;28;20211;-64
2021/10/08 08:16:46;;;;;;;13.27;8.27;;;10.70;25.50;;;;;;4993930;28;20203;-62
2021/10/08 08:19:14;;;;;;;9.50;7.13;;;10.80;99.90;;;;;;4994119;28;20636;-63
2021/10/08 08:21:40;;;;;;;9.53;7.27;;;10.80;1.00;;;;;;4994005;28;20208;-62
2021/10/08 08:24:07;;;;;;;8.03;6.27;;;10.80;81.70;;;;;;4994179;28;20238;-63
2021/10/08 08:26:34;;;;;;;9.97;6.80;;;10.80;58.70;;;;;;4993680;28;20731;-62
2021/10/08 08:29:00;;;;;;;10.23;7.73;;;10.90;99.90;;;;;;4994120;28;20227;-62
2021/10/08 08:31:28;;;;;;;8.20;6.47;;;11.00;99.90;;;;;;4994117;28;20216;-63
2021/10/08 08:33:55;;;;;;;10.10;6.73;;;11.00;99.90;;;;;;4994057;28;20220;-63
2021/10/08 08:36:23;;;;;;;9.57;7.53;;;11.10;99.90;;;;;;4993946;28;20211;-62
2021/10/08 08:38:49;;;;;;;9.90;7.37;;;11.20;72.90;;;;;;4993851;28;20286;-61
2021/10/08 08:41:16;;;;;;;9.27;7.27;;;11.20;1.00;;;;;;4993971;28;20231;-62
2021/10/08 08:43:43;;;;;;;11.93;7.10;;;11.20;1.00;;;;;;4993858;28;20274;-62
2021/10/08 08:46:10;;;;;;;9.77;7.47;;;11.20;1.00;;;;;;4992859;28;20230;-62
2021/10/08 08:48:38;;;;;;;11.83;8.50;;;11.20;99.90;;;;;;4993841;28;20212;-63
2021/10/08 08:51:04;;;;;;;10.73;7.50;;;11.30;1.00;;;;;;4993937;28;20223;-62
2021/10/08 08:56:12;;;;;;;10.97;8.43;;;11.50;99.90;;;;;;4990934;28;20565;-62
2021/10/08 08:58:39;;;;;;;11.73;7.50;;;11.60;99.90;;;;;;5001417;23;20203;-62
2021/10/08 09:01:06;;;;;;;9.80;7.57;;;11.60;1.00;;;;;;4992826;28;20215;-63
2021/10/08 09:03:33;;;;;;;10.83;7.57;;;11.70;88.40;;;;;;4993569;28;20214;-60
2021/10/08 09:06:01;;;;;;;8.47;7.57;;;11.80;99.90;;;;;;4993225;28;20223;-62
2021/10/08 09:08:32;;;;;;;8.90;6.73;;;11.90;99.90;;;;;;4993499;28;20215;-62
2021/10/08 09:11:00;;;;;;;9.97;7.63;;;12.00;1.00;;;;;;4993237;28;20208;-64
2021/10/08 09:13:28;;;;;;;8.33;6.80;;;12.10;99.90;;;;;;4992895;28;20219;-64
2021/10/08 09:15:57;;;;;;;10.87;7.30;;;12.20;64.60;;;;;;4992898;28;20204;-64
2021/10/08 09:18:25;;;;;;;9.40;6.83;;;12.20;1.00;;;;;;4993226;28;20679;-64
2021/10/08 09:21:08;;;;;;;8.30;5.97;;;12.30;72.50;;;;;;4992867;28;20212;-65
2021/10/08 09:23:36;;;;;;;7.50;6.40;;;12.30;1.00;;;;;;4992749;28;20220;-65
2021/10/08 09:26:04;;;;;;;9.07;6.83;;;12.40;1.00;;;;;;4992406;28;20231;-65
2021/10/08 09:28:31;;;;;;;7.97;6.80;;;12.50;1.00;;;;;;4993031;28;20211;-64
2021/10/08 09:30:57;;;;;;;11.70;6.47;;;12.50;1.00;;;;;;5006637;28;20253;-65
2021/10/08 09:33:29;;;;;;;10.27;7.27;;;12.60;1.00;;;;;;5012432;28;20203;-65
2021/10/08 09:35:59;;;;;;;10.27;6.63;;;12.70;1.00;;;;;;5011691;28;20296;-66
2021/10/08 09:38:32;;;;;;;10.10;6.93;;;12.90;1.00;;;;;;5011944;28;20376;-67
2021/10/08 09:41:05;;;;;;;11.07;6.87;;;12.90;99.90;;;;;;5012509;28;20219;-68
2021/10/08 09:43:33;;;;;;;10.00;6.27;;;13.00;99.90;;;;;;5012384;28;20309;-63
2021/10/08 09:46:01;;;;;;;6.57;5.70;;;13.10;99.90;;;;;;5011614;28;20215;-67
2021/10/08 09:48:41;;;;;;;8.83;5.60;;;13.30;99.90;;;;;;5012245;28;20214;-67
2021/10/08 09:51:09;;;;;;;8.63;5.30;;;13.40;50.70;;;;;;5012337;28;20219;-66
2021/10/08 09:53:38;;;;;;;9.57;6.27;;;13.40;95.30;;;;;;5012345;28;20218;-66
2021/10/08 09:56:30;;;;;;;8.43;6.27;;;13.60;99.90;;;;;;5011279;28;20207;-61
2021/10/08 09:58:57;;;;;;;8.70;5.90;;;13.70;53.90;;;;;;5012020;28;20269;-70
2021/10/08 10:01:27;;;;;;;7.83;6.20;;;13.80;93.70;;;;;;5012082;28;20222;-67
2021/10/08 10:03:54;;;;;;;11.23;7.10;;;13.80;40.10;;;;;;5012091;28;20203;-65
2021/10/08 10:06:22;;;;;;;11.37;7.10;;;13.90;39.20;;;;;;5011312;28;20226;-65
2021/10/08 10:08:51;;;;;;;9.23;6.73;;;14.00;9.00;;;;;;5012091;28;20223;-64
2021/10/08 10:11:18;;;;;;;10.93;6.83;;;14.10;18.40;;;;;;5011968;28;20253;-66
2021/10/08 10:13:46;;;;;;;9.53;6.43;;;14.10;1.00;;;;;;5011571;28;20586;-67
2021/10/08 10:16:15;;;;;;;11.13;7.57;;;14.20;1.00;;;;;;5011390;28;20632;-67
2021/10/08 10:18:43;;;;;;;8.37;6.30;;;14.30;25.50;;;;;;5011899;28;20568;-65
2021/10/08 10:21:10;;;;;;;11.50;6.83;;;14.40;1.00;;;;;;5011797;28;20211;-62
2021/10/08 10:23:38;;;;;;;9.63;6.60;;;14.40;1.00;;;;;;5011848;28;20215;-62
2021/10/08 10:26:06;;;;;;;9.90;6.63;;;14.50;1.00;;;;;;5010822;28;20215;-62
2021/10/08 10:28:34;;;;;;;14.77;7.80;;;14.50;1.00;;;;;;5012060;28;20217;-62
2021/10/08 10:31:01;;;;;;;9.50;6.97;;;14.60;1.00;;;;;;5011828;28;20211;-63
2021/10/08 10:33:30;;;;;;;8.43;7.20;;;14.70;1.00;;;;;;5011194;28;20215;-63
2021/10/08 10:36:00;;;;;;;11.70;7.53;;;14.60;1.00;;;;;;5010858;28;20235;-65
2021/10/08 10:38:29;;;;;;;12.80;8.00;;;14.60;1.00;;;;;;5011438;28;20207;-64
2021/10/08 10:41:25;;;;;;;9.97;7.40;;;14.60;1.00;;;;;;5011459;28;20683;-62
2021/10/08 10:44:19;;;;;;;11.10;7.70;;;14.70;1.00;;;;;;4998597;28;20210;-63
2021/10/08 10:46:57;;;;;;;9.40;7.73;;;14.80;1.00;;;;;;5011257;28;20227;-63
2021/10/08 10:49:53;;;;;;;9.20;7.03;;;14.90;1.00;;;;;;5011810;28;20267;-63
2021/10/08 10:52:28;;;;;;;12.07;7.63;;;14.90;1.00;;;;;;5011874;28;20211;-62
2021/10/08 10:55:09;;;;;;;9.70;7.03;;;14.90;1.00;;;;;;5010983;28;20683;-63
2021/10/08 10:57:59;;;;;;;9.13;6.37;;;15.10;1.00;;;;;;5011348;28;20218;-65
2021/10/08 11:00:36;;;;;;;8.37;6.73;;;15.20;1.00;;;;;;5011159;28;20267;-62
2021/10/08 11:03:07;;;;;;;8.03;7.20;;;15.30;1.00;;;;;;5011549;28;20604;-63
2021/10/08 11:05:37;;;;;;;9.87;7.00;;;15.40;1.00;;;;;;5010849;28;20625;-62
2021/10/08 11:08:16;;;;;;;13.80;7.80;;;15.50;1.00;;;;;;5011070;28;20233;-62
2021/10/08 11:10:45;;;;;;;11.77;7.50;;;15.50;1.00;;;;;;5011682;28;20235;-64
2021/10/08 11:13:31;;;;;;;9.70;7.83;;;15.40;1.00;;;;;;5009309;28;20211;-63
2021/10/08 11:16:03;;;;;;;10.50;7.57;;;15.50;1.00;;;;;;4991135;28;20215;-64
2021/10/08 11:18:37;;;;;;;8.63;6.83;;;15.60;1.00;;;;;;4991675;28;20270;-63
2021/10/08 11:21:04;;;;;;;10.13;7.50;;;15.70;1.00;;;;;;4991579;28;20215;-64
2021/10/08 11:23:36;;;;;;;12.93;7.97;;;15.80;1.00;;;;;;4991526;28;20210;-64
2021/10/08 11:26:06;;;;;;;9.73;8.20;;;15.90;1.00;;;;;;4991082;28;20218;-63
2021/10/08 11:28:37;;;;;;;11.10;7.67;;;15.90;1.00;;;;;;4991384;28;20238;-64
2021/10/08 11:31:05;;;;;;;13.77;8.47;;;15.80;1.00;;;;;;4991555;28;20215;-64
2021/10/08 11:33:38;;;;;;;11.60;8.27;;;15.90;1.00;;;;;;4991835;28;20262;-63
2021/10/08 11:36:20;;;;;;;9.67;7.30;;;15.80;1.00;;;;;;4991039;28;20214;-63
2021/10/08 11:38:48;;;;;;;11.80;7.47;;;15.70;1.00;;;;;;4991594;28;20235;-64
2021/10/08 11:41:19;;;;;;;10.00;6.90;;;15.80;1.00;;;;;;4991250;28;20212;-64
2021/10/08 11:43:55;;;;;;;12.70;8.50;;;15.90;1.00;;;;;;4991604;28;20207;-64
2021/10/08 11:52:00;;;;;;;11.87;7.30;;;16.30;1.00;;;;;;4990147;28;20209;-65
2021/10/08 11:54:26;;;;;;;8.43;6.97;;;16.30;1.00;;;;;;4994698;28;20214;-64
2021/10/08 11:57:01;;;;;;;10.40;6.97;;;16.40;1.00;;;;;;4994785;28;20585;-64
2021/10/08 11:59:29;;;;;;;8.07;5.80;;;16.50;1.00;;;;;;4994628;28;20329;-64
2021/10/08 12:02:13;;;;;;;10.07;7.47;;;16.50;1.00;;;;;;4994725;28;20235;-64
2021/10/08 12:04:40;;;;;;;7.90;6.90;;;16.50;1.00;;;;;;4994028;28;20219;-65
2021/10/08 12:07:11;;;;;;;9.00;6.13;;;16.30;1.00;;;;;;4994711;28;20604;-64
2021/10/08 12:09:39;;;;;;;9.90;6.63;;;16.50;1.00;;;;;;4994499;28;20282;-65
2021/10/08 12:12:15;;;;;;;10.07;6.33;;;16.60;1.00;;;;;;4994523;28;20215;-63
2021/10/08 12:14:47;;;;;;;8.80;5.80;;;16.60;1.00;;;;;;4993726;28;20242;-63
2021/10/08 12:17:14;;;;;;;9.10;6.27;;;16.70;1.00;;;;;;4994466;28;20216;-64
2021/10/08 12:19:40;;;;;;;8.50;6.07;;;16.80;1.00;;;;;;4994419;28;20232;-64
2021/10/08 12:22:11;;;;;;;9.27;6.43;;;16.80;1.00;;;;;;4994411;28;20214;-60
2021/10/08 12:24:38;;;;;;;9.00;6.40;;;16.80;1.00;;;;;;4993691;28;20203;-61
2021/10/08 12:27:06;;;;;;;10.47;6.90;;;16.90;1.00;;;;;;4994000;28;20256;-61
2021/10/08 12:29:40;;;;;;;9.93;6.83;;;16.80;1.00;;;;;;4993752;28;20763;-62
2021/10/08 12:32:12;;;;;;;11.13;7.23;;;16.80;1.00;;;;;;4994384;28;20258;-66
2021/10/08 12:34:40;;;;;;;10.63;6.30;;;16.90;1.00;;;;;;4993636;28;20625;-62
2021/10/08 12:37:09;;;;;;;8.27;6.27;;;16.80;1.00;;;;;;4993941;28;20207;-62
2021/10/08 12:39:39;;;;;;;10.20;6.77;;;16.70;1.00;;;;;;4993626;28;20270;-64
2021/10/08 12:42:19;;;;;;;12.17;6.77;;;16.80;1.00;;;;;;4994219;28;20222;-65
2021/10/08 12:44:49;;;;;;;13.13;7.00;;;16.90;1.00;;;;;;4993475;28;20211;-64
2021/10/08 12:47:23;;;;;;;7.97;6.53;;;17.10;1.00;;;;;;4993807;28;20223;-63
2021/10/08 12:49:51;;;;;;;8.27;6.03;;;17.10;1.00;;;;;;4993752;28;20264;-64
2021/10/08 12:52:32;;;;;;;9.60;6.20;;;17.30;1.00;;;;;;4993754;28;20219;-65
2021/10/08 12:55:05;;;;;;;9.70;6.40;;;17.30;1.00;;;;;;4993497;28;20211;-64
2021/10/08 12:57:31;;;;;;;7.83;6.47;;;17.40;1.00;;;;;;4993315;28;20211;-66